createdAt,value
2023-01-07T00:01:45.964Z,100807.75
2023-01-07T00:04:16.116Z,100800.19
2023-01-07T00:06:45.396Z,100797.69
2023-01-07T00:09:16.395Z,100797.28
2023-01-07T00:11:46.220Z,100799.97
2023-01-07T00:14:16.236Z,100783.41
2023-01-07T00:16:44.478Z,100785.78
2023-01-07T00:19:14.586Z,100784.13
2023-01-07T00:21:43.014Z,100801.44
2023-01-07T00:24:12.432Z,100794.78
2023-01-07T00:26:41.529Z,100766.41
2023-01-07T00:29:10.239Z,100775.53
2023-01-07T00:31:41.040Z,100760.47
2023-01-07T00:34:10.102Z,100779.72
2023-01-07T00:36:41.477Z,100773.25
2023-01-07T00:39:12.970Z,100767.63
2023-01-07T00:42:01.758Z,100774.75
2023-01-07T00:44:30.136Z,100750.06
2023-01-07T00:47:00.040Z,100754.19
2023-01-07T00:49:28.406Z,100777.38
2023-01-07T00:51:56.397Z,100760.50
2023-01-07T00:54:25.126Z,100774.72
2023-01-07T00:56:53.133Z,100762.81
2023-01-07T00:59:21.326Z,100769.47
2023-01-07T01:01:49.588Z,100733.97
2023-01-07T01:04:19.074Z,100743.56
2023-01-07T01:06:47.345Z,100722.94
2023-01-07T01:09:15.417Z,100724.97
2023-01-07T01:11:43.779Z,100745.00
2023-01-07T01:14:12.384Z,100754.88
2023-01-07T01:16:40.513Z,100705.97
2023-01-07T01:19:09.193Z,100741.22
2023-01-07T01:21:41.853Z,100738.81
2023-01-07T01:24:10.294Z,100733.94
2023-01-07T01:26:38.341Z,100737.28
2023-01-07T01:29:06.317Z,100738.94
2023-01-07T01:31:34.335Z,100733.91
2023-01-07T01:34:02.309Z,100735.16
2023-01-07T01:36:30.289Z,100743.50
2023-01-07T01:38:59.531Z,100723.06
2023-01-07T01:41:27.448Z,100738.25
2023-01-07T01:43:55.408Z,100726.78
2023-01-07T01:46:31.150Z,100733.88
2023-01-07T01:49:03.875Z,100737.91
2023-01-07T01:51:37.033Z,100728.84
2023-01-07T01:54:10.815Z,100714.63
2023-01-07T01:56:43.782Z,100726.56
2023-01-07T01:59:15.025Z,100707.56
2023-01-07T02:01:43.200Z,100728.59
2023-01-07T02:04:14.489Z,100716.03
2023-01-07T02:06:47.862Z,100717.34
2023-01-07T02:09:17.643Z,100674.97
2023-01-07T02:11:53.094Z,100686.47
2023-01-07T02:14:42.064Z,100649.66
2023-01-07T02:17:27.794Z,100715.41
2023-01-07T02:20:20.365Z,100713.19
2023-01-07T02:23:15.704Z,100706.56
2023-01-07T02:26:18.900Z,100702.56
2023-01-07T02:29:15.539Z,100720.69
2023-01-07T02:32:24.830Z,100709.97
2023-01-07T02:35:05.356Z,100690.06
2023-01-07T02:37:41.489Z,100673.03
2023-01-07T02:40:15.903Z,100682.09
2023-01-07T02:43:10.520Z,100660.38
2023-01-07T02:45:49.237Z,100707.88
2023-01-07T02:48:23.316Z,100697.94
2023-01-07T02:50:52.624Z,100694.00
2023-01-07T02:53:22.136Z,100650.03
2023-01-07T02:56:02.575Z,100669.94
2023-01-07T02:58:56.458Z,100695.47
2023-01-07T03:01:47.841Z,100675.22
2023-01-07T03:04:40.274Z,100678.06
2023-01-07T03:07:25.589Z,100678.22
2023-01-07T03:10:02.529Z,100678.28
2023-01-07T03:12:35.997Z,100654.91
2023-01-07T03:15:12.095Z,100668.03
2023-01-07T03:17:44.064Z,100667.13
2023-01-07T03:20:14.854Z,100667.34
2023-01-07T03:22:46.243Z,100677.47
2023-01-07T03:25:15.427Z,100682.66
2023-01-07T03:27:47.570Z,100675.38
2023-01-07T03:30:18.118Z,100650.56
2023-01-07T03:32:53.127Z,100672.63
2023-01-07T03:35:22.914Z,100673.25
2023-01-07T03:37:53.851Z,100672.88
2023-01-07T03:40:22.560Z,100674.50
2023-01-07T03:42:49.555Z,100656.19
2023-01-07T03:45:20.273Z,100665.34
2023-01-07T03:47:49.940Z,100661.59
2023-01-07T03:50:18.865Z,100659.97
2023-01-07T03:52:48.446Z,100648.63
2023-01-07T03:55:18.280Z,100652.00
2023-01-07T03:57:46.213Z,100647.66
2023-01-07T04:00:15.550Z,100620.28
2023-01-07T04:02:43.626Z,100613.41
2023-01-07T04:05:12.074Z,100640.13
2023-01-07T04:07:40.027Z,100642.47
2023-01-07T04:10:09.260Z,100605.66
2023-01-07T04:12:38.708Z,100591.22
2023-01-07T04:15:07.816Z,100623.56
2023-01-07T04:17:35.713Z,100625.44
2023-01-07T04:20:03.969Z,100613.53
2023-01-07T04:22:32.200Z,100581.53
2023-01-07T04:25:00.139Z,100610.66
2023-01-07T04:27:29.757Z,100585.28
2023-01-07T04:29:59.097Z,100624.88
2023-01-07T04:32:27.227Z,100620.91
2023-01-07T04:34:55.171Z,100593.91
2023-01-07T04:37:23.052Z,100603.13
2023-01-07T04:39:51.060Z,100600.25
2023-01-07T04:42:19.017Z,100601.09
2023-01-07T04:44:47.295Z,100560.25
2023-01-07T04:47:16.722Z,100574.97
2023-01-07T04:49:44.793Z,100607.44
2023-01-07T04:52:12.708Z,100572.63
2023-01-07T04:54:40.900Z,100579.72
2023-01-07T04:57:09.818Z,100573.38
2023-01-07T04:59:37.891Z,100591.75
2023-01-07T05:02:06.132Z,100599.47
2023-01-07T05:04:35.715Z,100576.28
2023-01-07T05:07:03.818Z,100548.81
2023-01-07T05:09:32.041Z,100553.41
2023-01-07T05:11:59.983Z,100560.25
2023-01-07T05:14:28.041Z,100572.53
2023-01-07T05:16:56.439Z,100568.16
2023-01-07T05:19:25.093Z,100564.00
2023-01-07T05:21:54.449Z,100559.66
2023-01-07T05:24:22.382Z,100525.28
2023-01-07T05:26:50.504Z,100501.94
2023-01-07T05:29:18.473Z,100572.31
2023-01-07T05:31:46.498Z,100534.22
2023-01-07T05:34:14.562Z,100554.13
2023-01-07T05:36:42.533Z,100566.44
2023-01-07T05:39:11.931Z,100517.81
2023-01-07T05:41:39.872Z,100565.81
2023-01-07T05:44:07.933Z,100549.91
2023-01-07T05:46:35.925Z,100559.06
2023-01-07T05:49:04.310Z,100509.06
2023-01-07T05:51:32.336Z,100549.69
2023-01-07T05:54:00.174Z,100548.19
2023-01-07T05:56:29.501Z,100545.19
2023-01-07T05:58:57.365Z,100539.13
2023-01-07T06:01:25.371Z,100520.41
2023-01-07T06:03:53.431Z,100514.63
2023-01-07T06:06:21.433Z,100543.81
2023-01-07T06:08:49.656Z,100538.78
2023-01-07T06:11:19.756Z,100498.94
2023-01-07T06:13:50.532Z,100545.00
2023-01-07T06:16:19.091Z,100541.47
2023-01-07T06:18:47.129Z,100532.88
2023-01-07T06:21:16.304Z,100519.63
2023-01-07T06:23:44.658Z,100526.03
2023-01-07T06:26:12.667Z,100501.56
2023-01-07T06:28:40.720Z,100481.88
2023-01-07T06:31:10.585Z,100522.25
2023-01-07T06:33:40.509Z,100501.63
2023-01-07T06:36:09.235Z,100523.25
2023-01-07T06:38:37.256Z,100497.09
2023-01-07T06:41:05.479Z,100489.28
2023-01-07T06:43:33.531Z,100502.19
2023-01-07T06:46:01.869Z,100470.53
2023-01-07T06:48:31.404Z,100497.09
2023-01-07T06:50:59.416Z,100459.94
2023-01-07T06:53:27.464Z,100475.41
2023-01-07T06:55:55.453Z,100475.06
2023-01-07T06:58:23.416Z,100462.19
2023-01-07T07:00:51.405Z,100478.63
2023-01-07T07:03:19.608Z,100471.78
2023-01-07T07:05:49.241Z,100465.47
2023-01-07T07:08:17.315Z,100437.59
2023-01-07T07:10:45.288Z,100479.66
2023-01-07T07:13:13.248Z,100468.59
2023-01-07T07:15:41.708Z,100426.16
2023-01-07T07:18:10.134Z,100468.13
2023-01-07T07:20:38.200Z,100431.88
2023-01-07T07:23:07.922Z,100459.50
2023-01-07T07:25:36.057Z,100433.13
2023-01-07T07:28:04.230Z,100453.06
2023-01-07T07:30:46.808Z,100448.06
2023-01-07T07:33:19.126Z,100447.13
2023-01-07T07:35:47.655Z,100416.53
2023-01-07T07:38:18.120Z,100445.59
2023-01-07T07:40:46.250Z,100398.13
2023-01-07T07:43:14.522Z,100432.03
2023-01-07T07:45:42.902Z,100422.22
2023-01-07T07:48:13.112Z,100455.09
2023-01-07T07:50:41.291Z,100443.88
2023-01-07T07:53:10.554Z,100445.03
2023-01-07T07:55:40.458Z,100445.47
2023-01-07T07:58:08.551Z,100429.72
2023-01-07T08:00:36.517Z,100446.38
2023-01-07T08:03:04.572Z,100443.03
2023-01-07T08:05:32.861Z,100429.81
2023-01-07T08:08:00.927Z,100422.63
2023-01-07T08:10:29.891Z,100419.50
2023-01-07T08:12:59.909Z,100410.59
2023-01-07T08:15:27.834Z,100414.97
2023-01-07T08:18:00.368Z,100394.00
2023-01-07T08:20:28.796Z,100403.19
2023-01-07T08:22:59.627Z,100415.09
2023-01-07T08:25:27.765Z,100419.84
2023-01-07T08:27:55.978Z,100407.84
2023-01-07T08:30:25.928Z,100374.59
2023-01-07T08:32:55.211Z,100387.22
2023-01-07T08:35:23.785Z,100355.53
2023-01-07T08:37:51.863Z,100367.78
2023-01-07T08:40:19.929Z,100400.56
2023-01-07T08:42:47.892Z,100406.00
2023-01-07T08:45:16.051Z,100387.41
2023-01-07T08:47:48.603Z,100387.53
2023-01-07T08:50:16.828Z,100392.94
2023-01-07T08:52:46.808Z,100373.88
2023-01-07T08:55:14.892Z,100378.31
2023-01-07T08:57:46.233Z,100390.91
2023-01-07T09:00:16.301Z,100359.97
2023-01-07T09:02:45.067Z,100349.16
2023-01-07T09:05:17.043Z,100364.13
2023-01-07T09:07:45.067Z,100373.94
2023-01-07T09:10:13.152Z,100358.47
2023-01-07T09:12:41.179Z,100362.00
2023-01-07T09:15:10.630Z,100373.41
2023-01-07T09:17:38.668Z,100365.56
2023-01-07T09:20:08.521Z,100345.06
2023-01-07T09:22:38.695Z,100370.34
2023-01-07T09:25:08.184Z,100363.59
2023-01-07T09:27:37.360Z,100376.97
2023-01-07T09:30:08.231Z,100362.09
2023-01-07T09:32:36.490Z,100375.63
2023-01-07T09:35:04.808Z,100361.09
2023-01-07T09:37:32.725Z,100346.81
2023-01-07T09:40:02.105Z,100364.72
2023-01-07T09:42:41.388Z,100356.34
2023-01-07T09:45:17.378Z,100343.88
2023-01-07T09:47:49.565Z,100343.44
2023-01-07T09:50:27.859Z,100343.97
2023-01-07T09:52:58.917Z,100346.38
2023-01-07T09:55:34.557Z,100343.19
2023-01-07T09:58:02.794Z,100333.38
2023-01-07T10:00:33.572Z,100341.28
2023-01-07T10:03:18.859Z,100351.03
2023-01-07T10:05:55.549Z,100347.34
2023-01-07T10:08:37.155Z,100331.88
2023-01-07T10:11:21.102Z,100320.69
2023-01-07T10:14:02.646Z,100313.88
2023-01-07T10:16:43.065Z,100329.56
2023-01-07T10:19:21.509Z,100297.22
2023-01-07T10:21:56.029Z,100322.13
2023-01-07T10:24:30.075Z,100314.72
2023-01-07T10:27:04.559Z,100312.00
2023-01-07T10:29:39.078Z,100290.50
2023-01-07T10:32:14.641Z,100305.28
2023-01-07T10:34:46.313Z,100302.88
2023-01-07T10:37:21.020Z,100308.16
2023-01-07T10:40:00.710Z,100286.06
2023-01-07T10:42:37.153Z,100294.97
2023-01-07T10:45:21.593Z,100283.94
2023-01-07T10:48:11.915Z,100258.16
2023-01-07T10:51:10.168Z,100272.91
2023-01-07T10:53:50.615Z,100259.84
2023-01-07T10:56:24.814Z,100248.03
2023-01-07T10:58:54.235Z,100251.13
2023-01-07T11:01:26.754Z,100255.25
2023-01-07T11:03:56.758Z,100251.03
2023-01-07T11:07:03.176Z,100247.41
2023-01-07T11:09:37.837Z,100224.94
2023-01-07T11:12:12.949Z,100223.25
2023-01-07T11:14:50.718Z,100230.72
2023-01-07T11:17:30.643Z,100228.72
2023-01-07T11:19:59.011Z,100208.16
2023-01-07T11:22:32.173Z,100197.81
2023-01-07T11:25:20.668Z,100212.25
2023-01-07T11:27:48.583Z,100202.66
2023-01-07T11:30:26.234Z,100201.81
2023-01-07T11:33:03.821Z,100183.16
2023-01-07T11:35:32.026Z,100191.63
2023-01-07T11:38:01.832Z,100174.66
2023-01-07T11:40:31.827Z,100171.63
2023-01-07T11:43:05.299Z,100173.56
2023-01-07T11:45:37.291Z,100150.97
2023-01-07T11:48:10.563Z,100146.25
2023-01-07T11:50:41.510Z,100153.69
2023-01-07T11:53:29.334Z,100113.81
2023-01-07T11:56:00.272Z,100134.41
2023-01-07T11:58:32.029Z,100135.25
2023-01-07T12:01:15.856Z,100131.22
2023-01-07T12:03:45.881Z,100088.72
2023-01-07T12:06:20.878Z,100101.38
2023-01-07T12:08:54.953Z,100103.50
2023-01-07T12:11:23.721Z,100103.88
2023-01-07T12:13:54.058Z,100115.09
2023-01-07T12:16:29.412Z,100096.53
2023-01-07T12:19:13.524Z,100110.84
2023-01-07T12:21:53.870Z,100082.41
2023-01-07T12:24:51.043Z,100075.19
2023-01-07T12:27:31.832Z,100089.53
2023-01-07T12:30:14.088Z,100082.09
2023-01-07T12:32:54.638Z,100083.97
2023-01-07T12:35:27.324Z,100077.47
2023-01-07T12:38:00.320Z,100071.78
2023-01-07T12:40:34.015Z,100072.84
2023-01-07T12:43:09.734Z,100069.31
2023-01-07T12:45:42.665Z,100068.59
2023-01-07T12:48:19.825Z,100059.94
2023-01-07T12:50:50.945Z,100041.63
2023-01-07T12:53:25.880Z,100042.56
2023-01-07T12:55:58.121Z,100054.84
2023-01-07T12:58:38.864Z,100028.19
2023-01-07T13:01:14.851Z,100044.66
2023-01-07T13:03:51.805Z,100046.19
2023-01-07T13:06:29.047Z,100041.59
2023-01-07T13:09:03.737Z,100025.03
2023-01-07T13:11:54.948Z,100001.16
2023-01-07T13:14:26.198Z,100031.91
2023-01-07T13:17:00.710Z,100023.88
2023-01-07T13:19:29.967Z,100019.00
2023-01-07T13:22:02.514Z,100024.47
2023-01-07T13:24:54.441Z,100018.59
2023-01-07T13:27:35.491Z,100013.44
2023-01-07T13:30:21.233Z,100005.94
2023-01-07T13:33:02.360Z,100011.81
2023-01-07T13:35:57.176Z,100008.78
2023-01-07T13:38:42.663Z,100000.88
2023-01-07T13:41:23.882Z,99994.88
2023-01-07T13:44:14.425Z,99983.16
2023-01-07T13:46:45.784Z,99997.22
2023-01-07T13:49:27.557Z,99998.88
2023-01-07T13:51:57.804Z,99980.69
2023-01-07T13:55:00.345Z,99987.72
2023-01-07T13:57:44.289Z,99975.09
2023-01-07T14:00:45.464Z,99991.53
2023-01-07T14:03:34.328Z,99998.16
2023-01-07T14:06:38.725Z,99996.66
2023-01-07T14:09:32.951Z,100000.19
2023-01-07T14:12:51.599Z,99995.81
2023-01-07T14:15:49.724Z,99994.75
2023-01-07T14:18:41.799Z,99995.13
2023-01-07T14:21:30.784Z,99975.97
2023-01-07T14:24:18.683Z,99966.47
2023-01-07T14:26:57.963Z,99990.50
2023-01-07T14:29:46.575Z,99986.13
2023-01-07T14:32:26.747Z,99972.16
2023-01-07T14:35:00.429Z,99956.31
2023-01-07T14:37:35.166Z,99980.06
2023-01-07T14:41:02.231Z,99961.28
2023-01-07T14:44:09.602Z,99969.03
2023-01-07T14:46:49.328Z,99969.69
2023-01-07T14:49:43.881Z,99960.50
2023-01-07T14:52:26.473Z,99940.19
2023-01-07T14:55:35.817Z,99963.75
2023-01-07T14:58:32.087Z,99956.31
2023-01-07T15:01:30.231Z,99944.00
2023-01-07T15:04:19.463Z,99955.25
2023-01-07T15:06:47.904Z,99943.72
2023-01-07T15:09:38.937Z,99926.72
2023-01-07T15:12:31.582Z,99901.69
2023-01-07T15:15:27.409Z,99936.44
2023-01-07T15:17:55.604Z,99938.41
2023-01-07T15:20:25.972Z,99944.47
2023-01-07T15:23:04.447Z,99906.38
2023-01-07T15:25:45.009Z,99922.09
2023-01-07T15:28:19.513Z,99896.94
2023-01-07T15:30:58.405Z,99933.94
2023-01-07T15:33:49.246Z,99950.38
2023-01-07T15:36:18.167Z,99928.88
2023-01-07T15:38:50.585Z,99915.50
2023-01-07T15:41:27.912Z,99938.09
2023-01-07T15:43:57.159Z,99930.28
2023-01-07T15:46:28.237Z,99941.50
2023-01-07T15:49:21.581Z,99943.78
2023-01-07T15:51:51.309Z,99936.66
2023-01-07T15:54:30.898Z,99938.31
2023-01-07T15:57:03.448Z,99927.91
2023-01-07T15:59:34.384Z,99936.91
2023-01-07T16:02:15.024Z,99942.13
2023-01-07T16:04:45.260Z,99944.47
2023-01-07T16:07:22.384Z,99919.53
2023-01-07T16:09:50.687Z,99918.59
2023-01-07T16:12:29.570Z,99933.81
2023-01-07T16:14:57.486Z,99936.09
2023-01-07T16:17:27.331Z,99943.66
2023-01-07T16:20:12.375Z,99938.81
2023-01-07T16:22:42.128Z,99937.50
2023-01-07T16:25:17.528Z,99931.44
2023-01-07T16:27:45.977Z,99936.06
2023-01-07T16:30:15.827Z,99930.31
2023-01-07T16:32:45.708Z,99931.00
2023-01-07T16:35:19.618Z,99922.94
2023-01-07T16:37:49.891Z,99905.00
2023-01-07T16:40:25.839Z,99923.56
2023-01-07T16:42:53.865Z,99914.91
2023-01-07T16:45:26.564Z,99909.97
2023-01-07T16:48:19.352Z,99909.97
2023-01-07T16:50:47.471Z,99901.22
2023-01-07T16:53:30.567Z,99900.06
2023-01-07T16:56:19.162Z,99897.94
2023-01-07T16:58:52.846Z,99901.00
2023-01-07T17:01:29.817Z,99905.72
2023-01-07T17:04:01.196Z,99894.41
2023-01-07T17:06:31.416Z,99880.31
2023-01-07T17:08:59.531Z,99888.84
2023-01-07T17:11:34.635Z,99897.69
2023-01-07T17:14:02.681Z,99892.47
2023-01-07T17:16:32.614Z,99894.69
2023-01-07T17:19:26.747Z,99886.97
2023-01-07T17:21:56.615Z,99878.09
2023-01-07T17:24:48.215Z,99889.75
2023-01-07T17:27:22.234Z,99883.09
2023-01-07T17:29:50.322Z,99862.78
2023-01-07T17:32:18.521Z,99866.31
2023-01-07T17:34:47.896Z,99873.97
2023-01-07T17:37:16.752Z,99870.19
2023-01-07T17:39:45.245Z,99862.47
2023-01-07T17:42:40.461Z,99875.88
2023-01-07T17:45:09.893Z,99853.66
2023-01-07T17:47:37.917Z,99854.47
2023-01-07T17:50:08.158Z,99875.03
2023-01-07T17:52:36.111Z,99852.22
2023-01-07T17:55:04.547Z,99869.63
2023-01-07T17:57:32.566Z,99871.41
2023-01-07T18:00:00.890Z,99871.75
2023-01-07T18:02:31.169Z,99886.22
2023-01-07T18:04:59.302Z,99894.56
2023-01-07T18:07:28.735Z,99886.44
2023-01-07T18:09:58.226Z,99887.38
2023-01-07T18:12:31.781Z,99874.03
2023-01-07T18:15:02.458Z,99874.03
2023-01-07T18:17:31.621Z,99881.88
2023-01-07T18:19:59.388Z,99876.75
2023-01-07T18:22:28.680Z,99868.06
2023-01-07T18:24:56.807Z,99871.22
2023-01-07T18:27:24.653Z,99865.03
2023-01-07T18:29:52.519Z,99858.88
2023-01-07T18:32:21.760Z,99870.72
2023-01-07T18:34:49.806Z,99860.84
2023-01-07T18:37:17.932Z,99872.88
2023-01-07T18:39:47.106Z,99869.75
2023-01-07T18:42:15.050Z,99868.91
2023-01-07T18:44:43.188Z,99866.66
2023-01-07T18:47:11.091Z,99880.19
2023-01-07T18:49:39.157Z,99871.06
2023-01-07T18:52:06.962Z,99846.09
2023-01-07T18:54:34.794Z,99858.66
2023-01-07T18:57:03.970Z,99848.53
2023-01-07T18:59:31.759Z,99842.75
2023-01-07T19:02:00.693Z,99848.50
2023-01-07T19:04:29.204Z,99840.97
2023-01-07T19:06:56.990Z,99842.69
2023-01-07T19:09:25.045Z,99852.69
2023-01-07T19:11:56.184Z,99852.25
2023-01-07T19:14:25.936Z,99847.13
2023-01-07T19:16:55.122Z,99834.28
2023-01-07T19:19:23.227Z,99844.06
2023-01-07T19:21:51.562Z,99846.31
2023-01-07T19:24:19.862Z,99842.41
2023-01-07T19:26:48.480Z,99844.06
2023-01-07T19:29:16.434Z,99844.13
2023-01-07T19:31:46.154Z,99844.53
2023-01-07T19:34:15.049Z,99811.88
2023-01-07T19:36:47.094Z,99831.00
2023-01-07T19:39:16.222Z,99821.63
2023-01-07T19:41:44.625Z,99824.78
2023-01-07T19:44:12.799Z,99822.06
2023-01-07T19:46:42.474Z,99815.03
2023-01-07T19:49:13.514Z,99809.22
2023-01-07T19:51:43.320Z,99811.28
2023-01-07T19:54:14.490Z,99807.34
2023-01-07T19:56:43.549Z,99810.28
2023-01-07T19:59:12.139Z,99816.56
2023-01-07T20:01:40.310Z,99816.63
2023-01-07T20:04:09.422Z,99818.59
2023-01-07T20:06:40.022Z,99800.91
2023-01-07T20:09:10.913Z,99813.03
2023-01-07T20:11:39.271Z,99807.16
2023-01-07T20:14:08.227Z,99818.19
2023-01-07T20:16:36.995Z,99810.19
2023-01-07T20:19:05.974Z,99793.06
2023-01-07T20:21:34.467Z,99807.13
2023-01-07T20:24:04.106Z,99806.03
2023-01-07T20:26:38.045Z,99798.13
2023-01-07T20:29:06.392Z,99810.63
2023-01-07T20:31:34.690Z,99781.66
2023-01-07T20:34:02.609Z,99806.75
2023-01-07T20:36:32.353Z,99803.81
2023-01-07T20:39:05.284Z,99805.34
2023-01-07T20:41:36.131Z,99802.31
2023-01-07T20:44:06.227Z,99809.44
2023-01-07T20:46:34.691Z,99805.16
2023-01-07T20:49:03.583Z,99798.13
2023-01-07T20:51:32.206Z,99780.97
2023-01-07T20:54:03.364Z,99784.94
2023-01-07T20:56:32.968Z,99776.41
2023-01-07T20:59:02.524Z,99790.91
2023-01-07T21:01:30.672Z,99803.72
2023-01-07T21:03:59.050Z,99799.75
2023-01-07T21:06:27.096Z,99766.50
2023-01-07T21:08:54.923Z,99787.81
2023-01-07T21:11:25.505Z,99757.84
2023-01-07T21:13:56.306Z,99782.88
2023-01-07T21:16:27.513Z,99737.75
2023-01-07T21:18:55.853Z,99770.13
2023-01-07T21:21:25.631Z,99771.75
2023-01-07T21:23:57.489Z,99766.59
2023-01-07T21:26:26.361Z,99775.63
2023-01-07T21:46:29.075Z,99770.38
2023-01-07T21:48:59.070Z,99767.34
2023-01-07T21:51:29.201Z,99731.88
2023-01-07T21:54:00.471Z,99737.38
2023-01-07T21:56:34.318Z,99741.66
2023-01-07T21:59:02.430Z,99734.59
2023-01-07T22:01:32.756Z,99722.19
2023-01-07T22:04:01.624Z,99730.47
2023-01-07T22:06:32.888Z,99712.03
2023-01-07T22:09:04.977Z,99725.22
2023-01-07T22:11:36.210Z,99715.78
2023-01-07T22:14:07.436Z,99709.63
2023-01-07T22:22:19.400Z,99735.97
2023-01-07T22:24:47.896Z,99728.13
2023-01-07T22:27:16.282Z,99721.75
2023-01-07T22:56:04.734Z,99729.94
2023-01-07T22:58:32.760Z,99710.47
2023-01-07T23:01:13.826Z,99737.00
2023-01-07T23:03:42.881Z,99733.44
2023-01-07T23:06:13.010Z,99734.75
2023-01-07T23:08:41.594Z,99717.38
2023-01-07T23:11:12.171Z,99733.28
2023-01-07T23:13:40.714Z,99695.53
2023-01-07T23:16:09.037Z,99712.88
2023-01-07T23:18:36.973Z,99707.00
2023-01-07T23:21:05.834Z,99696.91
2023-01-07T23:23:35.632Z,99680.84
2023-01-07T23:26:03.500Z,99704.00
2023-01-07T23:28:32.803Z,99705.78
2023-01-07T23:31:02.052Z,99692.63
2023-01-07T23:33:30.084Z,99703.72
2023-01-07T23:36:02.766Z,99667.09
2023-01-07T23:38:30.714Z,99685.81
2023-01-07T23:41:04.365Z,99686.75
2023-01-07T23:43:34.348Z,99665.84
2023-01-07T23:46:04.269Z,99663.16
2023-01-07T23:48:35.407Z,99665.06
2023-01-07T23:51:06.691Z,99640.03
2023-01-07T23:53:35.288Z,99624.69
2023-01-07T23:56:03.541Z,99647.16
2023-01-07T23:58:33.456Z,99640.53
